Time;durP1;ratioP1;P1;durP2;ratioP2;P2;SDS_P1;SDS_P2;PMS_P1;PMS_P2;Temp;Humidity;BMP_temperature;BMP_pressure;BME280_temperature;BME280_humidity;BME280_pressure;Samples;Min_cycle;Max_cycle;Signal;HPM_P1;HPM_P2
2023/08/24 00:01:49;;;;;;;4.82;4.32;;;20.70;81.80;;;;;;6072473;23;20265;-87
2023/08/24 00:04:17;;;;;;;5.50;4.70;;;20.70;81.80;;;;;;6049326;23;20141;-86
2023/08/24 00:06:47;;;;;;;5.00;4.47;;;20.70;81.90;;;;;;6046653;23;20164;-88
2023/08/24 00:09:15;;;;;;;5.78;4.22;;;20.70;81.80;;;;;;6172181;23;20153;-89
2023/08/24 00:11:41;;;;;;;5.50;4.70;;;20.70;82.70;;;;;;6072309;23;20140;-88
2023/08/24 00:14:11;;;;;;;5.82;4.97;;;20.60;82.00;;;;;;6072515;23;20173;-87
2023/08/24 00:16:45;;;;;;;4.72;4.13;;;20.70;82.00;;;;;;6046992;23;20165;-88
2023/08/24 00:19:19;;;;;;;4.80;4.22;;;20.70;82.00;;;;;;6071448;23;20215;-87
2023/08/24 00:21:44;;;;;;;5.50;4.55;;;20.70;82.00;;;;;;6173124;23;20152;-87
2023/08/24 00:24:15;;;;;;;5.80;4.43;;;20.60;81.90;;;;;;6049195;23;20160;-89
2023/08/24 00:26:54;;;;;;;5.88;4.80;;;20.60;82.00;;;;;;6071336;23;20164;-87
2023/08/24 00:29:33;;;;;;;5.07;4.45;;;20.60;82.00;;;;;;6052303;23;20157;-88
2023/08/24 00:31:58;;;;;;;5.53;4.85;;;20.60;82.00;;;;;;6048655;23;20211;-87
2023/08/24 00:34:24;;;;;;;5.38;4.75;;;20.60;82.00;;;;;;6048801;23;20149;-87
2023/08/24 00:36:58;;;;;;;5.15;4.50;;;20.70;82.00;;;;;;6049092;23;20149;-87
2023/08/24 00:39:24;;;;;;;6.43;4.30;;;20.60;82.00;;;;;;6072323;23;20666;-89
2023/08/24 00:41:51;;;;;;;5.32;4.47;;;20.60;82.20;;;;;;6139128;23;20198;-86
2023/08/24 00:44:20;;;;;;;6.45;4.70;;;20.60;82.00;;;;;;5967291;23;20467;-87
2023/08/24 00:46:49;;;;;;;5.13;4.55;;;20.60;82.10;;;;;;6012090;23;20159;-88
2023/08/24 00:49:22;;;;;;;5.00;4.50;;;20.60;82.20;;;;;;5967061;23;20162;-88
2023/08/24 00:51:57;;;;;;;5.30;4.60;;;20.60;82.10;;;;;;6013426;23;20538;-89
2023/08/24 00:54:29;;;;;;;4.80;4.30;;;20.60;82.10;;;;;;6009725;23;20157;-90
2023/08/24 00:57:00;;;;;;;5.47;4.72;;;20.70;82.20;;;;;;5953057;23;20166;-90
2023/08/24 00:59:33;;;;;;;5.53;4.57;;;20.60;82.10;;;;;;5953953;24;20270;-89
2023/08/24 01:02:06;;;;;;;5.50;4.47;;;20.60;82.10;;;;;;6026164;23;20238;-89
2023/08/24 01:04:33;;;;;;;5.13;4.63;;;20.60;82.20;;;;;;5953646;24;20238;-91
2023/08/24 01:07:02;;;;;;;5.38;4.63;;;20.60;82.30;;;;;;5953307;23;20159;-87
2023/08/24 01:09:34;;;;;;;4.88;4.38;;;20.60;82.30;;;;;;5976935;23;20155;-88
2023/08/24 01:12:15;;;;;;;5.22;4.72;;;20.60;82.40;;;;;;5966799;23;20231;-87
2023/08/24 01:15:14;;;;;;;5.82;4.30;;;20.60;82.30;;;;;;6017324;23;20158;-90
2023/08/24 01:17:45;;;;;;;5.88;5.05;;;20.60;82.30;;;;;;6062084;23;20601;-87
2023/08/24 01:20:15;;;;;;;5.15;4.40;;;20.60;82.40;;;;;;6038128;23;20153;-88
2023/08/24 01:23:24;;;;;;;5.82;4.75;;;20.60;82.40;;;;;;5991821;23;20158;-88
2023/08/24 01:26:13;;;;;;;5.30;4.72;;;20.60;82.40;;;;;;6038112;23;20601;-87
2023/08/24 01:28:47;;;;;;;5.03;4.53;;;20.60;82.50;;;;;;6024599;23;20914;-89
2023/08/24 01:31:26;;;;;;;5.53;4.93;;;20.60;82.50;;;;;;6049145;23;20160;-89
2023/08/24 01:33:59;;;;;;;4.90;4.40;;;20.60;82.60;;;;;;6074592;23;20625;-88
2023/08/24 01:36:25;;;;;;;6.00;4.25;;;20.60;82.50;;;;;;6137891;23;20641;-87
2023/08/24 01:38:58;;;;;;;5.00;4.50;;;20.60;82.60;;;;;;6004779;23;20244;-87
2023/08/24 01:41:29;;;;;;;5.15;4.65;;;20.60;82.60;;;;;;6004926;23;20195;-87
2023/08/24 01:44:07;;;;;;;4.85;4.35;;;20.60;82.60;;;;;;6004468;23;20159;-88
2023/08/24 01:46:36;;;;;;;6.38;4.85;;;20.60;82.70;;;;;;5961074;23;20177;-89
2023/08/24 01:49:03;;;;;;;6.30;4.40;;;20.60;82.60;;;;;;6005037;23;20159;-86
2023/08/24 01:51:34;;;;;;;5.68;4.50;;;20.50;82.60;;;;;;6004982;23;20607;-88
2023/08/24 01:54:06;;;;;;;5.82;4.50;;;20.50;82.60;;;;;;5981627;23;20163;-89
2023/08/24 01:56:33;;;;;;;5.53;4.80;;;20.60;82.70;;;;;;5958316;23;20190;-88
2023/08/24 01:59:10;;;;;;;4.70;4.22;;;20.50;82.70;;;;;;6004908;23;20262;-89
2023/08/24 02:01:42;;;;;;;5.30;4.80;;;20.50;82.70;;;;;;5958629;23;20154;-89
2023/08/24 02:04:10;;;;;;;6.25;4.60;;;20.50;82.70;;;;;;6003916;23;20571;-90
2023/08/24 02:06:39;;;;;;;6.50;4.72;;;20.50;82.70;;;;;;6013720;23;20238;-89
2023/08/24 02:09:04;;;;;;;5.65;4.47;;;20.50;82.70;;;;;;5967533;23;20257;-89
2023/08/24 02:11:30;;;;;;;5.85;4.68;;;20.50;82.70;;;;;;5991182;23;20185;-87
2023/08/24 02:13:59;;;;;;;5.50;4.68;;;20.60;82.90;;;;;;6014863;23;20536;-90
2023/08/24 02:16:28;;;;;;;5.80;4.55;;;20.50;82.90;;;;;;6054666;23;20153;-91
2023/08/24 02:18:58;;;;;;;5.20;4.60;;;20.50;82.90;;;;;;5963100;23;20607;-86
2023/08/24 02:21:26;;;;;;;5.32;4.82;;;20.50;83.00;;;;;;6059331;23;20158;-87
2023/08/24 02:23:56;;;;;;;5.22;4.68;;;20.50;83.00;;;;;;6108948;23;20585;-89
2023/08/24 02:26:26;;;;;;;5.65;4.93;;;20.50;83.00;;;;;;6109022;23;20226;-91
2023/08/24 02:29:06;;;;;;;5.50;4.70;;;20.50;83.00;;;;;;6153419;23;20190;-87
2023/08/24 02:31:33;;;;;;;5.25;4.35;;;20.50;83.00;;;;;;6084197;23;20165;-90
2023/08/24 02:34:06;;;;;;;5.60;4.55;;;20.50;83.00;;;;;;6129219;23;20155;-86
2023/08/24 02:36:34;;;;;;;5.10;4.60;;;20.50;83.00;;;;;;6082137;23;20155;-88
2023/08/24 02:39:02;;;;;;;5.70;4.90;;;20.50;82.90;;;;;;6018000;23;20185;-88
2023/08/24 02:41:28;;;;;;;5.15;4.57;;;20.50;82.90;;;;;;5988119;23;20200;-89
2023/08/24 02:44:09;;;;;;;4.95;4.40;;;20.50;83.00;;;;;;6046575;23;20184;-90
2023/08/24 02:46:44;;;;;;;5.72;4.70;;;20.50;83.00;;;;;;6017688;23;20171;-92
2023/08/24 02:49:13;;;;;;;5.25;4.53;;;20.50;83.00;;;;;;6019417;23;20664;-90
2023/08/24 02:51:44;;;;;;;5.25;4.50;;;20.50;83.10;;;;;;6066105;23;20164;-87
2023/08/24 02:54:11;;;;;;;5.10;4.35;;;20.50;83.10;;;;;;6041804;23;20153;-87
2023/08/24 02:56:39;;;;;;;5.72;4.57;;;20.40;83.10;;;;;;6041804;23;20156;-91
2023/08/24 02:59:08;;;;;;;5.20;4.63;;;20.50;83.20;;;;;;6081404;23;20191;-90
2023/08/24 03:01:38;;;;;;;5.20;4.70;;;20.50;83.10;;;;;;6042038;23;20212;-87
2023/08/24 03:04:09;;;;;;;4.70;4.13;;;20.50;83.10;;;;;;6042675;23;20184;-90
2023/08/24 03:06:42;;;;;;;5.72;4.75;;;20.50;83.10;;;;;;6017455;23;20157;-91
2023/08/24 03:09:09;;;;;;;4.90;4.40;;;20.50;83.20;;;;;;6050059;23;20156;-90
2023/08/24 03:11:38;;;;;;;5.70;4.70;;;20.50;83.20;;;;;;6099655;23;20227;-87
2023/08/24 03:14:04;;;;;;;4.95;4.50;;;20.50;83.20;;;;;;6100280;23;20162;-88
2023/08/24 03:16:35;;;;;;;6.80;4.55;;;20.50;83.30;;;;;;6095002;23;20248;-90
2023/08/24 03:19:01;;;;;;;4.90;4.40;;;20.50;83.30;;;;;;5940006;23;20209;-89
2023/08/24 03:21:32;;;;;;;5.00;4.50;;;20.50;83.30;;;;;;6108949;23;20228;-89
2023/08/24 03:24:04;;;;;;;5.00;4.50;;;20.40;83.40;;;;;;6106309;23;20161;-89
2023/08/24 03:26:34;;;;;;;4.80;4.30;;;20.50;83.50;;;;;;5983105;23;20160;-88
2023/08/24 03:29:00;;;;;;;5.32;4.82;;;20.50;83.40;;;;;;6000585;23;20580;-89
2023/08/24 03:31:30;;;;;;;4.95;4.45;;;20.50;83.40;;;;;;6072587;23;20222;-90
2023/08/24 03:33:56;;;;;;;5.28;4.50;;;20.50;83.40;;;;;;6048442;23;20151;-89
2023/08/24 03:36:21;;;;;;;4.78;4.28;;;20.50;83.50;;;;;;6072430;23;20215;-87
2023/08/24 03:38:48;;;;;;;5.00;4.50;;;20.40;83.40;;;;;;6048497;23;20503;-91
2023/08/24 03:41:16;;;;;;;4.78;4.28;;;20.50;83.40;;;;;;5994983;23;20197;-88
2023/08/24 03:43:42;;;;;;;5.22;4.35;;;20.50;83.40;;;;;;6009215;23;20154;-89
2023/08/24 03:46:09;;;;;;;5.28;4.47;;;20.50;83.90;;;;;;5925728;24;20235;-90
2023/08/24 03:48:39;;;;;;;5.25;4.72;;;20.50;83.80;;;;;;5948513;24;20172;-92
2023/08/24 03:51:08;;;;;;;5.00;4.40;;;20.50;83.80;;;;;;6041459;23;20176;-91
2023/08/24 03:53:41;;;;;;;5.47;4.82;;;20.50;83.80;;;;;;5962513;23;20162;-88
2023/08/24 03:56:09;;;;;;;5.40;4.55;;;20.50;83.90;;;;;;5938559;23;20158;-90
2023/08/24 03:58:39;;;;;;;4.68;4.20;;;20.40;83.80;;;;;;5961934;23;20186;-88
2023/08/24 04:01:06;;;;;;;5.05;4.50;;;20.40;83.90;;;;;;5962048;23;20161;-89
2023/08/24 04:03:41;;;;;;;5.75;4.68;;;20.50;84.00;;;;;;5969169;23;20250;-88
2023/08/24 04:06:15;;;;;;;5.50;4.72;;;20.40;84.00;;;;;;5969134;23;20162;-88
2023/08/24 04:08:44;;;;;;;5.65;4.75;;;20.40;84.10;;;;;;5971004;23;20641;-88
2023/08/24 04:11:11;;;;;;;4.70;4.20;;;20.40;84.00;;;;;;5969398;23;20166;-89
2023/08/24 04:13:37;;;;;;;5.00;4.50;;;20.40;83.90;;;;;;5964587;23;20231;-91
2023/08/24 04:16:03;;;;;;;5.10;4.60;;;20.40;84.00;;;;;;6017962;23;20457;-88
2023/08/24 04:18:33;;;;;;;4.97;4.47;;;20.40;84.30;;;;;;6017581;23;20189;-90
2023/08/24 04:21:01;;;;;;;5.05;4.35;;;20.40;84.20;;;;;;5998640;23;20204;-87
2023/08/24 04:23:36;;;;;;;5.30;4.40;;;20.40;84.20;;;;;;6125162;23;20147;-89
2023/08/24 04:26:09;;;;;;;5.03;4.53;;;20.50;84.00;;;;;;5996928;23;20163;-90
2023/08/24 04:28:39;;;;;;;4.85;4.20;;;20.40;84.10;;;;;;6042776;23;20160;-90
2023/08/24 04:31:08;;;;;;;4.85;4.35;;;20.50;83.90;;;;;;5996511;23;20156;-87
2023/08/24 04:33:42;;;;;;;4.55;4.13;;;20.40;83.90;;;;;;6093751;23;20137;-91
2023/08/24 04:36:11;;;;;;;5.15;4.60;;;20.50;84.00;;;;;;6068882;23;20498;-90
2023/08/24 04:38:44;;;;;;;5.07;4.50;;;20.40;84.10;;;;;;6044723;23;20469;-89
2023/08/24 04:41:30;;;;;;;4.90;4.40;;;20.50;84.10;;;;;;6020719;23;20227;-88
2023/08/24 04:44:00;;;;;;;6.50;4.60;;;20.40;83.90;;;;;;6049261;23;20183;-89
2023/08/24 04:46:26;;;;;;;5.07;4.47;;;20.40;84.00;;;;;;6144533;23;20160;-89
2023/08/24 04:49:03;;;;;;;4.75;4.35;;;20.40;84.10;;;;;;6068541;23;20500;-88
2023/08/24 04:51:29;;;;;;;5.70;4.85;;;20.40;83.90;;;;;;6089821;23;20152;-87
2023/08/24 04:54:06;;;;;;;5.50;4.57;;;20.40;84.00;;;;;;6044734;23;20160;-87
2023/08/24 04:56:34;;;;;;;5.10;4.60;;;20.40;84.00;;;;;;6043945;23;20542;-90
2023/08/24 04:59:03;;;;;;;4.80;4.30;;;20.40;84.00;;;;;;6046148;23;20184;-89
2023/08/24 05:01:32;;;;;;;4.78;4.18;;;20.40;84.00;;;;;;6043764;23;20145;-89
2023/08/24 05:04:00;;;;;;;6.13;4.55;;;20.40;84.00;;;;;;6045271;23;20148;-89
2023/08/24 05:06:29;;;;;;;5.15;4.65;;;20.40;84.00;;;;;;6134193;23;20274;-90
2023/08/24 05:08:56;;;;;;;5.38;4.30;;;20.40;84.00;;;;;;6086175;23;20566;-90
2023/08/24 05:11:30;;;;;;;5.57;4.97;;;20.40;84.10;;;;;;6085175;23;20189;-87
2023/08/24 05:14:01;;;;;;;4.90;4.40;;;20.40;84.20;;;;;;6135145;23;20159;-89
2023/08/24 05:16:31;;;;;;;5.20;4.70;;;20.40;84.40;;;;;;6112414;23;20182;-88
2023/08/24 05:19:03;;;;;;;4.80;4.30;;;20.40;84.30;;;;;;6110458;23;20183;-88
2023/08/24 05:21:36;;;;;;;4.78;4.22;;;20.40;84.30;;;;;;6106589;23;20155;-90
2023/08/24 05:24:04;;;;;;;5.05;4.40;;;20.40;84.40;;;;;;6081037;23;20151;-90
2023/08/24 05:26:35;;;;;;;4.93;4.43;;;20.40;84.40;;;;;;6130585;23;20235;-89
2023/08/24 05:29:03;;;;;;;4.57;4.05;;;20.40;84.60;;;;;;6081384;23;20155;-88
2023/08/24 05:31:38;;;;;;;5.03;4.50;;;20.40;84.30;;;;;;6095164;23;20153;-89
2023/08/24 05:34:04;;;;;;;4.50;4.05;;;20.40;84.20;;;;;;6093365;23;20486;-88
2023/08/24 05:36:31;;;;;;;5.25;4.50;;;20.40;84.30;;;;;;6098969;23;20152;-89
2023/08/24 05:39:01;;;;;;;4.30;3.88;;;20.40;84.20;;;;;;6102749;23;20183;-88
2023/08/24 05:41:40;;;;;;;6.75;4.47;;;20.40;84.30;;;;;;6076644;23;20292;-88
2023/08/24 05:44:07;;;;;;;4.65;4.20;;;20.40;84.80;;;;;;6067367;23;20157;-89
2023/08/24 05:46:36;;;;;;;4.28;3.88;;;20.40;84.70;;;;;;6091532;23;20164;-88
2023/08/24 05:49:03;;;;;;;4.60;3.95;;;20.40;84.20;;;;;;6092482;23;20217;-88
2023/08/24 05:51:39;;;;;;;4.03;3.63;;;20.50;84.00;;;;;;6071127;23;20153;-89
2023/08/24 05:54:05;;;;;;;4.78;3.80;;;20.50;84.00;;;;;;6094742;23;20160;-89
2023/08/24 05:56:32;;;;;;;4.07;3.55;;;20.50;84.00;;;;;;6070808;23;20618;-88
2023/08/24 05:58:58;;;;;;;4.18;3.78;;;20.50;84.00;;;;;;6118921;23;20300;-89
2023/08/24 06:01:25;;;;;;;3.78;3.47;;;20.50;84.10;;;;;;6089933;23;20172;-90
2023/08/24 06:03:53;;;;;;;3.78;3.38;;;20.50;84.10;;;;;;6010810;23;20197;-89
2023/08/24 06:06:23;;;;;;;3.92;3.53;;;20.40;84.10;;;;;;6032678;23;20225;-89
2023/08/24 06:08:49;;;;;;;3.50;3.20;;;20.40;84.20;;;;;;5984549;23;20185;-89
2023/08/24 06:11:19;;;;;;;3.42;3.13;;;20.40;84.30;;;;;;6009084;23;20165;-90
2023/08/24 06:13:45;;;;;;;3.60;3.25;;;20.50;84.40;;;;;;5985874;23;20169;-88
2023/08/24 06:16:11;;;;;;;3.30;3.00;;;20.30;84.30;;;;;;6070638;23;20152;-87
2023/08/24 06:18:36;;;;;;;3.20;2.90;;;20.40;84.50;;;;;;6048679;23;20262;-87
2023/08/24 06:21:18;;;;;;;3.40;3.10;;;20.40;84.50;;;;;;6074291;23;20185;-90
2023/08/24 06:23:47;;;;;;;3.30;3.00;;;20.30;84.50;;;;;;6216974;23;20153;-91
2023/08/24 06:26:14;;;;;;;3.42;3.10;;;20.30;84.60;;;;;;6170484;23;20489;-90
2023/08/24 06:28:41;;;;;;;3.60;3.30;;;20.30;84.70;;;;;;6164969;23;20158;-89
2023/08/24 06:31:08;;;;;;;3.30;3.00;;;20.40;84.70;;;;;;6163125;23;20237;-87
2023/08/24 06:33:34;;;;;;;3.45;3.13;;;20.30;84.70;;;;;;6164207;23;20229;-89
2023/08/24 06:36:16;;;;;;;3.47;3.08;;;20.30;84.70;;;;;;6189377;23;20154;-90
2023/08/24 06:38:45;;;;;;;3.20;2.90;;;20.30;84.80;;;;;;6194475;23;20621;-88
2023/08/24 06:41:12;;;;;;;3.22;2.92;;;20.30;84.90;;;;;;6078191;23;20339;-88
2023/08/24 06:43:39;;;;;;;3.15;2.80;;;20.30;84.80;;;;;;6077745;23;20156;-87
2023/08/24 06:46:07;;;;;;;3.13;2.85;;;20.30;84.90;;;;;;6077953;23;20152;-88
2023/08/24 06:48:34;;;;;;;3.15;2.85;;;20.30;85.00;;;;;;6127858;23;20152;-87
2023/08/24 06:51:00;;;;;;;2.92;2.63;;;20.30;85.10;;;;;;6076782;23;20214;-88
2023/08/24 06:53:26;;;;;;;3.08;2.78;;;20.30;85.20;;;;;;6125366;23;20183;-88
2023/08/24 06:55:55;;;;;;;3.00;2.70;;;20.30;85.20;;;;;;6076550;23;20554;-87
2023/08/24 06:58:21;;;;;;;3.25;2.75;;;20.30;85.20;;;;;;6075547;23;20191;-88
2023/08/24 07:00:48;;;;;;;3.08;2.78;;;20.30;85.20;;;;;;6074822;23;20462;-86
2023/08/24 07:03:14;;;;;;;3.78;2.80;;;20.30;85.20;;;;;;6075667;23;20187;-88
2023/08/24 07:05:40;;;;;;;3.17;2.88;;;20.30;85.10;;;;;;6106041;23;20155;-88
2023/08/24 07:08:22;;;;;;;3.00;2.70;;;20.20;85.10;;;;;;6085153;23;20152;-89
2023/08/24 07:10:48;;;;;;;2.97;2.67;;;20.20;85.10;;;;;;6126553;23;20152;-88
2023/08/24 07:13:16;;;;;;;2.55;2.35;;;20.30;85.20;;;;;;6078368;23;20211;-89
2023/08/24 07:15:42;;;;;;;3.00;2.70;;;20.30;85.30;;;;;;6054414;23;20195;-89
2023/08/24 07:18:11;;;;;;;2.88;2.65;;;20.30;85.30;;;;;;6132064;23;20280;-88
2023/08/24 07:20:48;;;;;;;3.20;2.90;;;20.20;85.20;;;;;;6114855;23;20182;-89
2023/08/24 07:23:14;;;;;;;3.22;2.92;;;20.20;85.30;;;;;;6162830;23;20576;-89
2023/08/24 07:25:44;;;;;;;3.35;2.70;;;20.30;85.40;;;;;;6164451;23;20142;-88
2023/08/24 07:28:16;;;;;;;3.00;2.70;;;20.30;85.50;;;;;;6164766;23;20632;-89
2023/08/24 07:30:45;;;;;;;2.85;2.55;;;20.30;85.40;;;;;;6116370;23;20276;-90
2023/08/24 07:33:21;;;;;;;2.90;2.60;;;20.30;85.30;;;;;;6115656;23;20158;-88
2023/08/24 07:35:50;;;;;;;3.10;2.70;;;20.30;85.40;;;;;;6080640;23;20603;-89
2023/08/24 07:38:18;;;;;;;3.10;2.80;;;20.30;85.50;;;;;;6054865;23;20365;-87
2023/08/24 07:40:44;;;;;;;2.75;2.55;;;20.20;85.40;;;;;;6033546;23;20154;-88
2023/08/24 07:43:16;;;;;;;2.70;2.50;;;20.20;85.50;;;;;;5987944;23;20198;-89
2023/08/24 07:46:13;;;;;;;3.13;2.70;;;20.30;85.60;;;;;;5987479;23;20154;-89
2023/08/24 07:48:43;;;;;;;2.78;2.55;;;20.30;85.60;;;;;;5946729;23;20179;-89
2023/08/24 07:51:10;;;;;;;2.90;2.60;;;20.30;85.60;;;;;;6010585;23;20162;-89
2023/08/24 07:53:42;;;;;;;2.85;2.60;;;20.30;85.70;;;;;;5988158;23;20442;-90
2023/08/24 07:56:13;;;;;;;3.28;2.97;;;20.30;85.80;;;;;;5988419;23;20162;-89
2023/08/24 07:58:40;;;;;;;3.00;2.70;;;20.30;85.80;;;;;;5965570;23;20186;-88
2023/08/24 08:01:07;;;;;;;3.95;3.10;;;20.30;85.70;;;;;;5988045;23;20161;-88
2023/08/24 08:03:37;;;;;;;2.92;2.70;;;20.30;85.80;;;;;;5988631;23;20304;-89
2023/08/24 08:06:04;;;;;;;3.00;2.70;;;20.30;85.60;;;;;;5977734;23;20183;-89
2023/08/24 08:08:32;;;;;;;2.70;2.47;;;20.30;85.60;;;;;;6121816;23;20211;-88
2023/08/24 08:11:00;;;;;;;3.50;3.20;;;20.30;85.60;;;;;;5998877;23;20184;-89
2023/08/24 08:13:30;;;;;;;2.88;2.60;;;20.30;85.60;;;;;;6047117;23;20181;-89
2023/08/24 08:16:05;;;;;;;3.10;2.80;;;20.30;85.60;;;;;;6120919;23;20164;-89
2023/08/24 08:18:42;;;;;;;2.95;2.65;;;20.30;85.60;;;;;;6120908;23;20188;-89
2023/08/24 08:21:13;;;;;;;2.92;2.60;;;20.40;85.40;;;;;;6120481;23;20622;-91
2023/08/24 08:23:46;;;;;;;2.70;2.50;;;20.40;85.20;;;;;;6049138;23;20141;-89
2023/08/24 08:26:13;;;;;;;3.03;2.72;;;20.40;85.10;;;;;;6098026;23;20160;-89
2023/08/24 08:28:40;;;;;;;2.85;2.55;;;20.50;85.00;;;;;;6023413;23;20209;-91
2023/08/24 08:31:21;;;;;;;3.22;2.92;;;20.50;85.00;;;;;;6071549;23;20141;-89
2023/08/24 08:33:52;;;;;;;3.30;3.00;;;20.50;85.00;;;;;;6070940;23;20137;-89
2023/08/24 08:36:22;;;;;;;3.00;2.70;;;20.50;85.00;;;;;;6048473;23;20183;-89
2023/08/24 08:38:51;;;;;;;3.00;2.70;;;20.50;85.00;;;;;;6023865;23;20181;-89
2023/08/24 08:41:17;;;;;;;2.45;2.25;;;20.50;85.00;;;;;;6025068;23;20722;-88
2023/08/24 08:43:48;;;;;;;3.25;2.95;;;20.50;85.00;;;;;;6047061;23;20216;-90
2023/08/24 08:46:17;;;;;;;2.60;2.40;;;20.50;85.10;;;;;;6070172;23;20597;-90
2023/08/24 08:48:45;;;;;;;3.10;2.70;;;20.50;85.00;;;;;;6070074;23;20280;-88
2023/08/24 08:51:27;;;;;;;3.00;2.70;;;20.50;85.00;;;;;;6045583;23;20157;-90
2023/08/24 08:53:53;;;;;;;3.00;2.70;;;20.50;84.90;;;;;;6026735;23;20168;-90
2023/08/24 08:56:25;;;;;;;2.63;2.42;;;20.50;84.90;;;;;;6069060;23;20565;-88
2023/08/24 08:58:55;;;;;;;2.50;2.30;;;20.50;84.90;;;;;;6021686;23;20199;-89
2023/08/24 09:01:25;;;;;;;2.70;2.50;;;20.50;84.80;;;;;;5992990;23;20157;-89
2023/08/24 09:03:51;;;;;;;2.60;2.40;;;20.60;84.70;;;;;;6015975;23;20153;-89
2023/08/24 09:06:32;;;;;;;2.58;2.38;;;20.60;84.70;;;;;;6016123;23;20207;-90
2023/08/24 09:08:58;;;;;;;2.83;2.60;;;20.60;84.50;;;;;;6162971;23;20777;-88
2023/08/24 09:11:24;;;;;;;2.95;2.67;;;20.60;84.50;;;;;;6015887;23;20157;-88
2023/08/24 09:13:53;;;;;;;2.70;2.50;;;20.60;84.40;;;;;;5992434;23;20585;-88
2023/08/24 09:16:22;;;;;;;2.70;2.50;;;20.70;84.30;;;;;;6016183;23;20149;-88
2023/08/24 09:18:53;;;;;;;2.95;2.67;;;20.70;84.30;;;;;;5970691;23;20188;-88
2023/08/24 09:21:22;;;;;;;2.60;2.40;;;20.70;84.10;;;;;;6141066;23;20149;-88
2023/08/24 09:23:56;;;;;;;2.72;2.53;;;20.70;84.00;;;;;;5993243;23;20181;-88
2023/08/24 09:26:33;;;;;;;2.78;2.53;;;20.70;83.90;;;;;;6016428;23;20199;-88
2023/08/24 09:29:17;;;;;;;3.15;2.70;;;20.70;83.80;;;;;;6017584;23;20157;-88
2023/08/24 09:31:48;;;;;;;3.10;2.63;;;20.70;83.80;;;;;;6076123;23;20640;-88
2023/08/24 09:34:26;;;;;;;2.42;2.22;;;20.70;83.80;;;;;;6006883;23;20229;-88
2023/08/24 09:36:53;;;;;;;2.90;2.60;;;20.70;83.70;;;;;;5984330;23;20652;-88
2023/08/24 09:39:40;;;;;;;2.88;2.60;;;20.80;83.80;;;;;;5996244;23;20189;-88
2023/08/24 09:42:09;;;;;;;2.60;2.40;;;20.70;83.80;;;;;;6041748;23;20228;-88
2023/08/24 09:44:35;;;;;;;2.63;2.38;;;20.70;84.00;;;;;;6044371;23;20142;-88
2023/08/24 09:47:01;;;;;;;2.60;2.40;;;20.70;83.90;;;;;;6020768;23;20167;-87
2023/08/24 09:49:28;;;;;;;3.10;2.50;;;20.70;83.80;;;;;;6020748;23;20181;-88
2023/08/24 09:51:57;;;;;;;2.90;2.70;;;20.70;83.80;;;;;;5998177;23;20161;-88
2023/08/24 09:54:28;;;;;;;3.00;2.55;;;20.70;83.80;;;;;;5997565;23;20268;-89
2023/08/24 09:56:58;;;;;;;2.72;2.50;;;20.70;83.90;;;;;;5998519;23;20212;-88
2023/08/24 09:59:28;;;;;;;3.50;2.60;;;20.70;83.90;;;;;;6139615;23;20214;-88
2023/08/24 10:01:56;;;;;;;3.28;2.60;;;20.60;84.00;;;;;;6124676;23;20157;-89
2023/08/24 10:04:26;;;;;;;2.67;2.47;;;20.70;84.00;;;;;;6026739;23;20159;-89
2023/08/24 10:06:59;;;;;;;2.80;2.50;;;20.70;84.00;;;;;;6050517;23;20137;-89
2023/08/24 10:09:31;;;;;;;2.78;2.50;;;20.70;83.90;;;;;;6028242;23;20157;-89
2023/08/24 10:12:02;;;;;;;2.67;2.40;;;20.70;83.90;;;;;;6027070;23;20604;-90
2023/08/24 10:14:31;;;;;;;4.30;2.60;;;20.70;84.00;;;;;;6025320;23;20161;-88
2023/08/24 10:16:59;;;;;;;2.70;2.50;;;20.70;83.90;;;;;;6018679;23;20233;-89
2023/08/24 10:19:25;;;;;;;2.67;2.47;;;20.70;83.90;;;;;;6016839;23;20185;-89
2023/08/24 10:21:57;;;;;;;2.63;2.40;;;20.70;83.90;;;;;;6017120;23;20261;-90
2023/08/24 10:24:36;;;;;;;2.65;2.45;;;20.70;83.80;;;;;;6063235;23;20188;-88
2023/08/24 10:27:09;;;;;;;2.70;2.50;;;20.70;83.80;;;;;;6015586;23;20145;-88
2023/08/24 10:29:44;;;;;;;2.65;2.42;;;20.80;83.80;;;;;;6003601;23;20163;-89
2023/08/24 10:32:30;;;;;;;3.05;2.72;;;20.70;84.50;;;;;;6073278;23;20722;-90
2023/08/24 10:34:59;;;;;;;2.78;2.53;;;20.70;83.80;;;;;;6078403;23;20148;-90
2023/08/24 10:37:36;;;;;;;2.38;2.17;;;20.80;83.80;;;;;;6074557;23;20138;-90
2023/08/24 10:40:34;;;;;;;3.70;2.95;;;20.80;83.80;;;;;;6075720;23;20211;-88
2023/08/24 10:43:10;;;;;;;3.65;2.42;;;20.80;84.00;;;;;;6101167;23;20204;-89
2023/08/24 10:45:58;;;;;;;2.75;2.55;;;20.80;84.00;;;;;;6101301;23;20215;-89
2023/08/24 10:48:54;;;;;;;2.60;2.40;;;20.80;83.80;;;;;;6100999;23;20271;-89
2023/08/24 10:51:38;;;;;;;2.70;2.50;;;20.80;83.80;;;;;;6094213;23;20160;-87
2023/08/24 11:08:46;;;;;;;2.55;2.35;;;20.80;83.60;;;;;;6037124;23;20565;-88
2023/08/24 11:11:47;;;;;;;2.92;2.28;;;20.70;83.50;;;;;;5951882;24;20163;-87
2023/08/24 11:14:58;;;;;;;2.60;2.40;;;20.80;83.60;;;;;;5925587;24;20593;-91
2023/08/24 11:17:45;;;;;;;2.85;2.53;;;20.70;83.50;;;;;;5871622;24;20729;-90
2023/08/24 11:20:12;;;;;;;2.40;2.20;;;20.70;83.60;;;;;;5870924;24;20221;-88
2023/08/24 11:23:04;;;;;;;2.75;2.25;;;20.80;83.60;;;;;;5919972;24;20176;-89
2023/08/24 11:25:35;;;;;;;2.45;2.25;;;20.80;83.40;;;;;;5867108;24;20162;-89
2023/08/24 11:28:09;;;;;;;3.63;2.40;;;20.80;83.40;;;;;;5898176;24;20246;-88
2023/08/24 11:40:38;;;;;;;2.75;2.30;;;20.80;83.20;;;;;;5845097;24;20275;-87
2023/08/24 11:43:05;;;;;;;3.22;2.50;;;20.80;83.10;;;;;;6041020;23;20562;-87
2023/08/24 11:45:42;;;;;;;4.03;2.65;;;20.80;83.00;;;;;;6019459;23;20230;-86
2023/08/24 17:31:53;;;;;;;;;;;;;;;;;;;;;
2023/08/24 17:50:33;;;;;;;2.40;1.80;;;20.90;83.10;;;;;;6136760;23;20178;-86
2023/08/24 18:01:17;;;;;;;;;;;;;;;;;;;;;
2023/08/24 18:31:42;;;;;;;1.85;1.58;;;20.80;84.00;;;;;;5783835;24;20617;-87
2023/08/24 18:34:57;;;;;;;2.80;1.55;;;20.80;84.10;;;;;;5854937;24;20238;-88
